Weather observations for the past three days for
Elkhart, Elkhart-Morton County Airport
Imperial (Metric)
Date Time (cdt) Wind (mph) Vis. (mi.) Weather Sky Cond. Temperature (ºF) Relative Humidity Wind Chill (°F) Heat Index (°F) Pressure Precipitation (in)
Air Dwpt 6 hour altimeter (in) sea level (mb) 1 hr 3 hr 6 hr
Max. Min.
02 19:55 W 3 10.00 Fair CLR 70.2 26.2 19% 30.09 0.0
02 19:35 W 5 10.00 Fair CLR 71.2 26.4 19% 30.09 0.0
02 19:15 Calm 10.00 Fair CLR 71.4 26.4 19% 30.09 0.0
02 18:55 S 3 10.00 Fair CLR 72.3 27.3 74.8 66.9 19% 30.1 0.0
02 18:35 S 7 10.00 Fair CLR 74.1 27.9 18% 30.1 0.0
02 18:15 SW 6 10.00 Fair CLR 72.9 27.7 19% 30.1 0.0
02 17:55 SW 9 10.00 Fair CLR 73.8 28.8 19% 30.11 0.0
02 17:35 W 5 10.00 Fair CLR 73 28.2 19% 30.11 0.0
02 17:15 W 7 10.00 Fair CLR 72.7 27.9 19% 30.11 0.0
02 16:55 N 8 10.00 Partly Cloudy SCT095 73.4 26.8 18% 30.12 0.0
02 16:35 E 5 10.00 Fair CLR 70.7 25.5 18% 30.13 0.0
02 16:15 W 6 10.00 Fair CLR 72.7 24.6 16% 30.14 0.0
02 15:55 W 12 G 16 10.00 Fair CLR 72.9 25.9 17% 30.15 0.0
02 15:35 SW 9 10.00 Fair CLR 71.6 25.7 18% 30.16 0.0
02 15:15 N 8 10.00 Fair CLR 73 25.5 17% 30.16 0.0
02 14:55 N 5 10.00 Fair CLR 70.2 25.9 19% 30.17 0.0
02 14:35 W 8 10.00 Partly Cloudy SCT090 69.8 26.8 20% 30.17 0.0
02 14:15 E 6 10.00 Partly Cloudy SCT090 70.7 27.5 20% 30.18 0.0
02 13:55 SE 6 10.00 Partly Cloudy SCT075 68.9 27.1 21% 30.19 0.0
02 13:35 N 5 10.00 Partly Cloudy SCT075 70.3 31.5 24% 30.2 0.0
02 13:15 N 6 10.00 Partly Cloudy SCT075 69.6 32.4 25% 30.2 0.0
02 12:55 NW 8 10.00 Fair CLR 68 36.1 68.4 43 31% 30.21 0.0
02 12:35 N 7 10.00 Fair CLR 66.9 36.9 33% 30.22 0.0
02 12:15 N 12 10.00 Fair CLR 65.8 37.8 36% 30.22 0.0
02 11:55 N 10 10.00 Fair CLR 63.1 38.5 40% 30.23 0.0
02 11:35 N 8 10.00 Fair CLR 62.2 38.3 41% 30.23 0.0
02 11:15 N 9 G 16 10.00 Fair CLR 61 39.6 45% 30.23 0.0
02 10:55 N 9 10.00 Fair CLR 59.4 40.3 49% 30.22 0.0
02 10:35 N 9 10.00 Fair CLR 57.9 40.5 52% 30.22 0.0
02 10:15 N 9 10.00 Fair CLR 55.4 39.9 56% 30.23 0.0
02 09:55 N 12 10.00 Fair CLR 54 40.1 60% 30.23 0.0
02 09:35 N 12 10.00 Fair CLR 51.4 39.2 63% 30.23 0.0
02 09:15 N 9 10.00 Fair CLR 49.5 38.1 65% 46 30.22 0.0
02 08:55 N 9 10.00 Fair CLR 48.2 39 71% 45 30.22 0.0
02 08:35 NE 10 G 18 10.00 Fair CLR 47.7 39.4 73% 44 30.22 0.0
02 08:15 W 9 10.00 Fair CLR 48.2 38.5 69% 45 30.19 0.0
02 07:55 W 9 10.00 Fair CLR 46 37.6 72% 42 30.19 0.0
02 07:35 W 12 10.00 Fair CLR 44.2 36.7 75% 39 30.18 0.0
02 07:15 W 12 10.00 Fair CLR 43.3 36.5 77% 38 30.17 0.0
02 06:55 W 12 10.00 Fair CLR 43 36.5 46.4 42.8 78% 37 30.17 0.0
02 06:35 W 12 10.00 Fair CLR 43 36.9 79% 37 30.17 0.0
02 06:15 W 13 10.00 Fair CLR 43.5 36.9 77% 38 30.17 0.0
02 05:55 W 13 10.00 Fair CLR 43.3 37.2 79% 37 30.17 0.0
02 05:35 W 12 10.00 Fair CLR 43 37.4 81% 37 30.17 0.0
02 05:15 W 12 10.00 Fair CLR 43.5 37.8 80% 38 30.17 0.0
02 04:55 W 12 10.00 Fair CLR 43.3 38.1 82% 38 30.17 0.0
02 04:35 W 13 10.00 Fair CLR 44.1 38.5 81% 38 30.16 0.0
02 04:15 W 14 10.00 Fair CLR 44.4 39 81% 38 30.16 0.0
02 03:55 W 13 10.00 Fair CLR 43.9 39.2 84% 38 30.16 0.0
02 03:35 W 13 10.00 Fair CLR 44.2 39.6 84% 39 30.16 0.0
02 03:15 W 13 10.00 Fair CLR 45 39.6 81% 39 30.16 0.0
02 02:55 W 13 10.00 Fair CLR 45.5 39.7 80% 40 30.16 0.0
02 02:35 W 13 10.00 Fair CLR 45.7 39.9 80% 40 30.17 0.0
02 02:15 W 12 10.00 Fair CLR 45.5 40.1 81% 40 30.17 0.0
02 01:55 W 12 10.00 Fair CLR 45.1 39.9 82% 40 30.17 0.0
02 01:35 W 10 10.00 Fair CLR 45.3 40.1 82% 41 30.17 0.0
02 01:15 W 10 10.00 Fair CLR 46.2 40.1 79% 42 30.17 0.0
02 00:55 W 10 10.00 Fair CLR 46.6 39.9 59.4 46.4 78% 42 30.17 0.0
02 00:35 W 10 10.00 Fair CLR 47.1 40.1 77% 43 30.16 0.0
02 00:15 W 12 10.00 Fair CLR 47.7 40.3 76% 43 30.16 0.0
01 23:55 W 12 10.00 Fair CLR 47.7 40.3 76% 43 30.16 0.0
01 23:35 SW 12 10.00 Fair CLR 47.7 40.6 77% 43 30.16 0.0
01 23:15 SW 10 10.00 Fair CLR 47.5 41 78% 43 30.16 0.0
01 22:55 SW 10 10.00 Fair CLR 47.8 41.2 78% 44 30.16 0.0
01 22:35 SW 10 10.00 Fair CLR 48.6 41.4 76% 45 30.16 0.0
01 22:15 SW 10 10.00 Fair CLR 49.3 41.4 74% 45 30.16 0.0
01 21:55 SW 10 10.00 Fair CLR 49.3 41.4 74% 45 30.16 0.0
01 21:35 SW 10 10.00 Fair CLR 50.4 40.6 69% 30.15 0.0
01 21:15 SW 9 10.00 Fair CLR 50.2 39.7 68% 30.15 0.0
01 20:55 SW 8 10.00 Fair CLR 51.4 39.2 63% 30.14 0.0
01 20:35 W 8 10.00 Partly Cloudy SCT100 53.4 38.1 56% 30.14 0.0
01 20:15 W 10 10.00 Fair CLR 54.9 37.9 53% 30.13 0.0
01 19:55 W 9 10.00 Fair CLR 56.7 36.9 48% 30.13 0.0
01 19:35 SW 10 10.00 Fair CLR 56.5 36.5 47% 30.12 0.0
01 19:15 W 12 10.00 Partly Cloudy SCT050 SCT060 58.5 37 45% 30.12 0.0
01 18:55 W 14 10.00 Mostly Cloudy SCT050 BKN060 59.9 37.6 62.1 48.9 44% 30.12 0.0
01 18:35 W 13 10.00 Partly Cloudy SCT060 SCT070 61.5 37 40% 30.12 0.0
01 18:15 SW 10 10.00 Fair CLR 59.9 35.8 41% 30.12 0.0
01 17:55 W 12 10.00 Partly Cloudy SCT090 60.3 37.6 43% 30.12 0.0
01 17:35 SW 12 10.00 Mostly Cloudy SCT044 SCT065 BKN090 60.8 36.9 41% 30.12 0.0
01 17:15 SW 8 10.00 Mostly Cloudy BKN090 60.1 38.5 45% 30.12 0.0
01 16:55 SW 9 10.00 Overcast SCT055 OVC090 58.3 38.5 48% 30.13 0.0
01 16:35 W 6 10.00 Overcast BKN042 OVC055 57.2 38.7 50% 30.14 0.0
01 16:15 W 7 10.00 Overcast BKN042 BKN048 OVC090 56.8 39.2 52% 30.15 0.0
01 15:55 SW 6 10.00 Mostly Cloudy SCT037 SCT049 BKN070 57.7 39.6 51% 30.15 0.0
01 15:35 W 7 10.00 Overcast BKN037 BKN049 OVC090 59.7 41 50% 30.16 0.0
01 15:15 W 10 10.00 Overcast SCT031 SCT039 OVC090 57.6 41 54% 30.17 0.0
01 14:55 W 8 10.00 Mostly Cloudy SCT029 BKN090 BKN110 57.2 41.5 56% 30.17 0.0
01 14:35 W 8 10.00 Mostly Cloudy SCT024 SCT031 BKN110 55.4 41.7 60% 30.18 0.0
01 14:15 W 10 10.00 Overcast SCT024 BKN031 OVC100 54.5 42.4 64% 30.19 0.0
01 13:55 W 9 10.00 Overcast SCT031 BKN055 OVC100 53.4 42.1 66% 30.19 0.0
01 13:35 W 7 10.00 Overcast BKN027 BKN033 OVC055 52 42.3 70% 30.2 0.0
01 13:15 NW 5 10.00 Overcast OVC023 50 41.9 74% 49 30.2 0.0
01 12:55 W 7 10.00 Overcast OVC023 48.9 42.3 49.5 43.9 78% 46 30.21 0.0 0.04
01 12:35 NW 7 10.00 Overcast SCT013 OVC026 48.7 43.3 82% 46 30.21 0.0
01 12:15 NW 7 10.00 Light Rain BKN015 BKN023 OVC029 48.6 43.2 82% 46 30.21 0.0
01 11:55 W 7 10.00 Overcast BKN015 BKN023 OVC029 48.7 43.5 82% 46 30.21 0.0
01 11:35 NW 3 10.00 Overcast BKN017 OVC043 49.1 42.8 79% 30.21 0.0
01 11:15 W 3 10.00 Overcast SCT013 BKN019 OVC041 48.2 43 82% 30.21 0.0
01 10:55 Calm 10.00 Overcast SCT015 OVC041 48 43 83% 30.21 0.0
01 10:35 NW 3 10.00 Overcast BKN013 OVC043 47.5 44.2 89% 30.2 0.0
01 10:15 N 5 10.00 Overcast BKN011 OVC043 46.9 43.7 89% 45 30.2 0.0
01 09:55 N 3 10.00 Overcast OVC009 47.3 43.9 88% 30.2 0.0 0.04
01 09:35 NE 3 10.00 Overcast BKN009 BKN012 OVC042 46.2 44.6 94% 30.19 0.0
01 09:15 N 5 10.00 Light Drizzle BKN007 BKN014 OVC044 45.3 44.6 97% 43 30.2 0.0
01 08:55 NE 5 10.00 Light Rain SCT007 SCT014 OVC044 44.6 43.9 97% 43 30.19 0.0 0.02
01 08:35 NE 5 7.00 Light Rain SCT007 BKN012 OVC044 44.4 43.7 97% 42 30.19 0.0 0.01
01 08:15 N 6 7.00 Light Rain Fog/Mist BKN007 OVC014 44.2 43.7 98% 41 30.19 0.0 0.01
01 07:55 N 5 7.00 Light Rain Fog/Mist SCT007 OVC014 44.2 43.7 98% 42 30.19 0.0 0.02
01 07:35 N 6 7.00 Light Rain Fog/Mist SCT007 OVC014 44.2 43.7 98% 41 30.17 0.0 0.01
01 07:15 N 7 7.00 Light Rain Fog/Mist SCT007 BKN039 OVC046 44.2 43.7 98% 41 30.17 0.0 0.01
01 06:55 N 5 10.00 Light Rain SCT037 OVC048 44.2 43.7 45.5 44.2 98% 42 30.17 0.0 0.01 0.07
01 06:35 N 3 10.00 Light Rain BKN048 OVC055 44.2 43.7 98% 30.17 0.0 0.01
01 06:15 N 5 10.00 Light Rain SCT007 BKN055 OVC065 44.2 43.7 98% 42 30.16 0.0
01 05:55 N 5 10.00 Light Rain SCT008 BKN034 OVC050 44.4 43.9 98% 42 30.17 0.0 0.02
01 05:35 NW 5 7.00 Light Rain BKN034 BKN043 OVC055 44.6 44.1 98% 43 30.17 0.0 0.01
01 05:15 NW 6 7.00 Light Rain OVC034 44.4 43.9 98% 42 30.18 0.0 0.01
01 04:55 NW 5 7.00 Light Rain OVC034 44.4 43.9 98% 42 30.17 0.0 0.02
01 04:35 NW 3 7.00 Light Rain BKN034 OVC045 44.6 43.9 97% 30.17 0.0 0.01
01 03:55 NW 6 10.00 Light Drizzle BKN041 OVC050 45 43.7 95% 42 30.17 0.0 0.01 0.02
01 03:35 NW 6 7.00 Light Rain OVC039 45 43.7 95% 42 30.17 0.0
01 03:15 N 6 10.00 Light Rain OVC039 45.1 43.9 95% 43 30.17 0.0
01 02:55 NW 6 10.00 Light Rain OVC037 45.1 43.9 95% 43 30.18 0.0 0.01
01 02:35 N 5 10.00 Light Rain BKN037 BKN044 OVC070 45.1 43.9 95% 43 30.18 0.0
01 02:15 N 5 10.00 Light Drizzle SCT044 OVC070 45.1 43.7 95% 43 30.18 0.0
01 01:55 N 6 10.00 Light Drizzle OVC070 45.5 43.9 94% 43 30.18 0.0
01 01:35 NE 7 10.00 Light Rain SCT043 BKN050 OVC065 45.3 43.7 94% 42 30.18 0.0
01 01:15 NE 7 10.00 Light Rain BKN041 BKN048 OVC075 45.1 43.7 95% 42 30.19 0.0
01 00:55 NE 8 7.00 Light Rain BKN046 OVC060 45 43.3 56.8 44.8 94% 41 30.18 0.0 0.03 0.04
01 00:35 NE 9 10.00 Light Rain OVC042 45 42.8 92% 41 30.18 0.0 0.01
01 00:15 NE 8 10.00 Light Rain OVC044 45.1 42.1 89% 41 30.18 0.0
30 23:55 NE 8 10.00 Light Rain BKN046 OVC060 45 41.7 88% 41 30.18 0.0 0.01
30 23:35 N 9 10.00 Light Rain OVC048 45 41.5 88% 41 30.18 0.0
30 23:15 N 10 10.00 Light Rain OVC055 45.7 40.6 83% 41 30.18 0.0
30 22:55 N 12 10.00 Overcast BKN065 OVC075 46.2 39.2 77% 41 30.17 0.0
30 22:35 NE 16 10.00 Light Drizzle OVC075 46.4 38.8 75% 40 30.17 0.0
30 22:15 NE 15 10.00 Light Rain OVC075 46.6 38.1 73% 41 30.16 0.0
30 21:55 NE 18 10.00 Light Rain BKN060 OVC075 47.5 37.2 68% 41 30.16 0.0
30 21:35 NE 16 10.00 Overcast BKN060 BKN080 OVC090 48.6 34.7 59% 43 30.16 0.0
30 21:15 NE 21 10.00 Overcast and Breezy BKN090 OVC110 48.6 35.8 61% 42 30.15 0.0
30 20:55 NE 18 10.00 Mostly Cloudy BKN110 49.3 37.6 64% 43 30.13 0.0
30 20:35 NE 20 G 30 10.00 Partly Cloudy SCT080 SCT100 SCT120 49.8 38.1 64% 44 30.12 0.0
30 20:15 NE 23 G 28 10.00 Mostly Cloudy and Breezy BKN075 BKN080 BKN110 50.2 38.1 63% 30.11 0.0
30 19:55 NE 24 G 31 10.00 Overcast and Breezy OVC075 52 38.1 59% 30.1 0.0
30 19:35 NE 24 10.00 Overcast and Breezy BKN075 OVC090 54.3 36.9 52% 30.1 0.0
30 19:15 NE 21 10.00 Overcast and Breezy BKN090 OVC110 55.8 36 48% 30.08 0.0
30 18:35 NE 21 10.00 Mostly Cloudy and Breezy SCT080 SCT085 BKN120 57.9 34.9 42% 30.07 0.0
30 18:15 NE 20 G 29 10.00 Mostly Cloudy BKN080 BKN120 59.5 34 38% 30.06 0.0
30 17:55 NE 21 G 26 10.00 Mostly Cloudy and Breezy BKN080 63 32.9 33% 30.05 0.0
30 17:35 E 8 10.00 Overcast OVC080 63 25.5 24% 30.05 0.0
30 17:15 E 10 10.00 Overcast OVC080 63.1 24.8 23% 30.06 0.0
30 16:55 E 6 10.00 Overcast OVC080 63 24.1 23% 30.06 0.0
30 16:35 E 8 10.00 Overcast OVC080 62.4 25 24% 30.07 0.0
30 16:15 E 7 10.00 Overcast OVC080 62.2 26.6 26% 30.07 0.0
30 15:55 E 8 10.00 Overcast OVC080 62.8 24.8 23% 30.07 0.0
30 15:35 NE 10 10.00 Overcast OVC080 62.6 24.8 24% 30.08 0.0
30 15:15 E 3 10.00 Overcast OVC080 61.5 25.5 25% 30.08 0.0
30 14:55 SE 9 10.00 Overcast OVC080 61.5 25.2 25% 30.09 0.0
30 14:35 SE 13 10.00 Overcast OVC080 60.4 25.9 27% 30.09 0.0
30 14:15 SE 8 10.00 Overcast BKN080 OVC090 60.6 27 28% 30.1 0.0
30 13:55 SE 9 10.00 Overcast BKN080 OVC090 60.3 26.2 27% 30.1 0.0
30 13:35 E 10 10.00 Overcast OVC080 60.4 29.8 31% 30.1 0.0
30 13:15 E 10 10.00 Overcast OVC080 59.5 31.1 34% 30.11 0.0
30 12:55 E 12 10.00 Overcast BKN080 OVC090 59.4 32.2 59.7 47.3 36% 30.12 0.0
30 12:35 E 9 10.00 Overcast OVC080 58.3 32.9 38% 30.13 0.0
30 12:15 E 8 10.00 Overcast OVC080 57.4 32.9 40% 30.13 0.0
30 11:55 SE 9 10.00 Overcast BKN080 OVC090 56.5 32.9 41% 30.14 0.0
30 11:35 SE 12 10.00 Overcast OVC080 55.6 32.9 42% 30.14 0.0
30 11:15 SE 9 10.00 Overcast BKN080 OVC090 56.5 33.4 42% 30.14 0.0
30 10:55 E 8 10.00 Overcast BKN080 OVC110 54.7 33.3 44% 30.14 0.0
30 10:35 E 8 10.00 Overcast BKN080 OVC110 55.4 34.9 46% 30.15 0.0
30 10:15 E 9 10.00 Overcast BKN090 OVC110 54.9 36.1 49% 30.15 0.0
30 09:55 SE 7 10.00 Mostly Cloudy BKN090 BKN100 53.4 35.8 51% 30.15 0.0
30 09:35 E 5 10.00 Mostly Cloudy BKN100 52.7 35.6 52% 30.16 0.0
30 09:15 NE 5 10.00 Overcast OVC090 51.4 35.2 54% 30.16 0.0
30 08:55 NE 7 10.00 Overcast OVC090 50.5 34.2 54% 30.16 0.0
30 08:35 NE 7 10.00 Overcast OVC090 48.9 33.6 56% 46 30.16 0.0
30 08:15 NE 7 10.00 Overcast OVC090 48.6 33.3 56% 46 30.15 0.0
30 07:55 NE 6 10.00 Overcast OVC090 48.2 33.6 57% 46 30.14 0.0
30 07:35 NE 5 10.00 Overcast OVC090 47.5 33.8 59% 46 30.14 0.0
30 07:15 NE 3 10.00 Overcast OVC090 47.7 33.8 59% 30.14 0.0
30 06:55 Calm 10.00 Overcast OVC090 47.1 33.4 52.3 46.9 59% 30.13 0.0
30 06:35 Calm 10.00 Overcast OVC090 47.7 34.5 60% 30.13 0.0
30 06:15 Calm 10.00 Overcast BKN090 OVC110 47.7 33.6 58% 30.13 0.0
30 05:55 Calm 10.00 Overcast OVC090 48 34.5 60% 30.13 0.0
30 05:35 E 3 10.00 Overcast OVC090 48.4 34.2 58% 30.13 0.0
30 05:15 SE 3 10.00 Overcast OVC090 48.6 34.2 58% 30.14 0.0
30 04:55 SE 8 10.00 Overcast OVC090 48.7 34 57% 46 30.12 0.0
30 04:35 E 7 10.00 Overcast OVC090 48.9 34.9 59% 46 30.12 0.0
30 04:15 E 7 10.00 Overcast OVC090 49.1 33.8 56% 47 30.12 0.0
30 03:55 E 7 10.00 Overcast OVC090 49.1 33.8 56% 47 30.12 0.0
30 03:35 E 7 10.00 Overcast OVC090 49.5 33.3 54% 47 30.12 0.0
30 03:15 SE 7 10.00 Overcast OVC090 49.3 34 56% 47 30.12 0.0
30 02:55 SE 8 10.00 Overcast OVC090 49.5 33.6 55% 47 30.12 0.0
30 02:35 SE 9 10.00 Overcast OVC100 49.8 33.4 53% 47 30.12 0.0
30 02:15 S 16 10.00 Overcast OVC100 50.2 33.1 52% 30.1 0.0
30 01:55 SE 14 10.00 Overcast OVC100 51.1 32.7 50% 30.1 0.0
30 01:35 E 13 10.00 Overcast BKN100 OVC120 51.3 31.8 48% 30.11 0.0
30 01:15 E 13 10.00 Overcast BKN100 OVC120 51.8 31.3 46% 30.12 0.0
30 00:55 SE 14 10.00 Overcast OVC100 52.3 31.3 64.9 52.2 45% 30.12 0.0
30 00:35 SE 14 10.00 Overcast OVC100 52.5 31.6 45% 30.11 0.0
30 00:15 SE 15 10.00 Overcast OVC100 52.9 31.3 44% 30.12 0.0
29 23:55 SE 16 10.00 Overcast OVC100 53.4 30.9 42% 30.11 0.0
29 23:35 SE 17 10.00 Overcast OVC110 53.8 30.7 41% 30.11 0.0
29 23:15 E 16 G 23 10.00 Overcast OVC110 54.3 30.7 41% 30.11 0.0
29 22:55 E 17 10.00 Mostly Cloudy BKN110 54.7 30.6 40% 30.1 0.0
29 22:35 E 17 10.00 Overcast OVC110 55 29.7 38% 30.1 0.0
29 22:15 E 17 10.00 Mostly Cloudy BKN120 55.2 28.4 36% 30.09 0.0
29 21:55 E 16 10.00 Partly Cloudy SCT120 55.4 27.9 35% 30.09 0.0
29 21:35 E 16 10.00 Partly Cloudy SCT120 55.6 27.5 34% 30.08 0.0
29 21:15 E 13 10.00 Partly Cloudy SCT120 55.6 26.1 32% 30.07 0.0
29 20:55 E 13 10.00 Fair CLR 56.1 25.9 31% 30.07 0.0
29 20:35 E 13 10.00 Fair CLR 57.6 25.7 29% 30.06 0.0
29 20:15 E 10 10.00 Fair CLR 59.5 26.1 28% 30.05 0.0
Date Time (cdt) Wind (mph) Vis. (mi.) Weather Sky Cond. Air Dwpt Max. Min. Relative Humidity Wind Chill (°F) Heat Index (°F) altimeter (in) sea level (mb) 1 hr 3 hr 6 hr
6 hour
Temperature (ºF) Pressure Precipitation (in)